createdAt,value
2019-05-07T00:01:44.685Z,19.30
2019-05-07T00:04:13.098Z,18.20
2019-05-07T00:06:43.426Z,19.77
2019-05-07T00:09:13.732Z,22.47
2019-05-07T00:11:42.681Z,18.47
2019-05-07T00:14:12.622Z,17.70
2019-05-07T00:16:42.284Z,21.43
2019-05-07T00:19:12.874Z,16.77
2019-05-07T00:21:42.335Z,16.27
2019-05-07T00:24:13.168Z,14.37
2019-05-07T00:26:43.073Z,15.20
2019-05-07T00:29:12.948Z,17.03
2019-05-07T00:31:42.146Z,16.87
2019-05-07T00:34:12.619Z,14.07
2019-05-07T00:36:52.501Z,14.83
2019-05-07T00:39:39.691Z,12.67
2019-05-07T00:42:25.836Z,16.20
2019-05-07T00:45:13.258Z,12.57
2019-05-07T00:47:29.235Z,14.27
2019-05-07T00:49:59.282Z,14.37
2019-05-07T00:52:27.894Z,16.47
2019-05-07T00:54:56.310Z,15.03
2019-05-07T00:57:24.726Z,12.63
2019-05-07T00:59:53.157Z,11.33
2019-05-07T01:02:23.312Z,13.63
2019-05-07T01:04:53.199Z,14.10
2019-05-07T01:07:22.872Z,15.10
2019-05-07T01:09:52.387Z,14.37
2019-05-07T01:12:22.171Z,15.80
2019-05-07T01:14:52.826Z,15.90
2019-05-07T01:17:22.683Z,16.53
2019-05-07T01:19:53.218Z,16.50
2019-05-07T01:22:22.230Z,21.77
2019-05-07T01:24:52.537Z,16.30
2019-05-07T01:27:22.639Z,15.67
2019-05-07T01:29:52.763Z,17.33
2019-05-07T01:32:34.742Z,18.23
2019-05-07T01:35:05.391Z,17.80
2019-05-07T01:37:33.830Z,21.27
2019-05-07T01:40:03.085Z,24.33
2019-05-07T01:42:32.705Z,20.00
2019-05-07T01:45:02.273Z,20.70
2019-05-07T01:47:33.009Z,22.33
2019-05-07T01:50:03.076Z,22.53
2019-05-07T01:52:33.175Z,18.47
2019-05-07T01:55:03.209Z,23.20
2019-05-07T01:57:32.634Z,21.10
2019-05-07T02:00:02.554Z,19.57
2019-05-07T02:02:33.008Z,22.30
2019-05-07T02:05:05.795Z,23.20
2019-05-07T02:07:38.567Z,17.97
2019-05-07T02:10:09.264Z,19.00
2019-05-07T02:12:38.761Z,19.27
2019-05-07T02:15:08.232Z,18.57
2019-05-07T02:17:36.670Z,19.20
2019-05-07T02:20:06.840Z,17.43
2019-05-07T02:22:35.250Z,21.90
2019-05-07T02:25:04.182Z,17.43
2019-05-07T02:27:32.991Z,21.40
2019-05-07T02:30:04.339Z,19.07
2019-05-07T02:32:33.364Z,20.43
2019-05-07T02:35:03.951Z,19.67
2019-05-07T02:37:47.145Z,20.10
2019-05-07T02:40:14.324Z,19.23
2019-05-07T02:42:44.227Z,19.73
2019-05-07T02:45:14.829Z,21.13
2019-05-07T02:47:43.889Z,21.00
2019-05-07T02:50:32.922Z,20.70
2019-05-07T02:53:18.390Z,19.37
2019-05-07T02:55:48.531Z,17.03
2019-05-07T02:58:16.963Z,17.77
2019-05-07T03:00:45.475Z,18.40
2019-05-07T03:03:14.083Z,20.20
2019-05-07T03:05:43.310Z,15.93
2019-05-07T03:08:13.622Z,22.37
2019-05-07T03:10:43.372Z,20.57
2019-05-07T03:13:13.722Z,18.67
2019-05-07T03:15:43.462Z,17.00
2019-05-07T03:18:13.765Z,18.00
2019-05-07T03:20:50.070Z,18.33
2019-05-07T03:23:22.611Z,15.67
2019-05-07T03:25:54.168Z,18.30
2019-05-07T03:28:23.733Z,18.50
2019-05-07T03:31:05.948Z,15.07
2019-05-07T03:33:37.276Z,15.83
2019-05-07T03:36:08.094Z,16.47
2019-05-07T03:38:36.697Z,18.43
2019-05-07T03:41:05.225Z,17.50
2019-05-07T03:43:33.611Z,19.47
2019-05-07T03:46:06.111Z,18.70
2019-05-07T03:48:36.157Z,17.53
2019-05-07T03:51:04.660Z,18.87
2019-05-07T03:53:33.938Z,18.50
2019-05-07T03:56:04.142Z,18.00
2019-05-07T03:58:34.029Z,19.50
2019-05-07T04:01:04.381Z,19.67
2019-05-07T04:03:34.204Z,18.80
2019-05-07T04:06:04.017Z,21.97
2019-05-07T04:08:33.620Z,17.97
2019-05-07T04:11:03.512Z,19.73
2019-05-07T04:13:33.550Z,20.10
2019-05-07T04:16:04.077Z,19.10
2019-05-07T04:18:33.142Z,15.70
2019-05-07T04:21:03.622Z,19.67
2019-05-07T04:23:34.128Z,21.47
2019-05-07T04:26:06.751Z,16.00
2019-05-07T04:28:36.806Z,17.83
2019-05-07T04:31:05.302Z,18.67
2019-05-07T04:33:35.393Z,18.47
2019-05-07T04:36:05.451Z,20.10
2019-05-07T04:38:33.888Z,22.83
2019-05-07T04:41:03.888Z,15.10
2019-05-07T04:43:33.691Z,18.33
2019-05-07T04:46:03.393Z,18.20
2019-05-07T04:48:33.986Z,19.87
2019-05-07T04:51:03.916Z,21.27
2019-05-07T04:53:32.977Z,20.20
2019-05-07T04:56:03.298Z,19.47
2019-05-07T04:58:33.912Z,22.83
2019-05-07T05:01:03.212Z,19.80
2019-05-07T05:03:34.638Z,20.00
2019-05-07T05:06:02.753Z,22.57
2019-05-07T05:08:32.485Z,18.87
2019-05-07T05:11:03.377Z,24.13
2019-05-07T05:13:33.132Z,24.87
2019-05-07T05:16:03.493Z,18.53
2019-05-07T05:18:32.970Z,19.70
2019-05-07T05:21:03.157Z,17.23
2019-05-07T05:23:33.300Z,23.43
2019-05-07T05:26:01.990Z,19.93
2019-05-07T05:28:32.364Z,22.80
2019-05-07T05:31:03.405Z,22.03
2019-05-07T05:33:32.430Z,24.93
2019-05-07T05:36:03.073Z,23.97
2019-05-07T05:38:32.914Z,24.50
2019-05-07T05:41:02.715Z,23.00
2019-05-07T05:43:49.516Z,22.27
2019-05-07T05:46:19.616Z,24.53
2019-05-07T05:48:48.029Z,18.70
2019-05-07T05:51:18.117Z,20.83
2019-05-07T05:53:48.181Z,21.13
2019-05-07T05:56:35.970Z,22.10
2019-05-07T05:59:24.181Z,22.83
2019-05-07T06:02:06.691Z,21.27
2019-05-07T06:04:36.478Z,20.57
2019-05-07T06:07:11.438Z,17.93
2019-05-07T06:09:44.099Z,22.80
2019-05-07T06:12:32.718Z,16.27
2019-05-07T06:15:18.259Z,17.40
2019-05-07T06:17:48.434Z,15.37
2019-05-07T06:20:18.737Z,17.13
2019-05-07T06:22:48.803Z,15.37
2019-05-07T06:25:25.445Z,14.43
2019-05-07T06:27:54.382Z,17.07
2019-05-07T06:30:22.938Z,12.53
2019-05-07T06:32:52.301Z,13.90
2019-05-07T06:35:22.977Z,12.37
2019-05-07T06:37:52.147Z,14.17
2019-05-07T06:40:42.248Z,16.83
2019-05-07T06:43:12.434Z,13.30
2019-05-07T06:45:42.572Z,16.07
2019-05-07T06:48:12.632Z,11.70
2019-05-07T06:50:43.268Z,13.77
2019-05-07T06:53:12.177Z,14.13
2019-05-07T06:55:42.687Z,16.30
2019-05-07T06:58:12.263Z,14.20
2019-05-07T07:00:42.570Z,15.60
2019-05-07T07:03:15.338Z,13.47
2019-05-07T07:05:45.385Z,11.93
2019-05-07T07:08:22.991Z,15.47
2019-05-07T07:11:02.603Z,17.00
2019-05-07T07:13:32.186Z,13.87
2019-05-07T07:16:01.888Z,10.20
2019-05-07T07:18:32.358Z,8.47
2019-05-07T07:21:02.202Z,10.47
2019-05-07T07:23:32.438Z,6.00
2019-05-07T07:26:03.113Z,9.17
2019-05-07T07:28:32.611Z,8.37
2019-05-07T07:31:15.136Z,9.67
2019-05-07T07:33:47.820Z,6.37
2019-05-07T07:36:17.155Z,9.10
2019-05-07T07:38:45.618Z,8.83
2019-05-07T07:41:18.358Z,12.70
2019-05-07T07:43:46.835Z,15.33
2019-05-07T07:46:16.668Z,10.00
2019-05-07T07:48:45.491Z,7.23
2019-05-07T07:51:14.260Z,11.73
2019-05-07T07:53:43.136Z,7.50
2019-05-07T07:56:29.365Z,11.37
2019-05-07T07:59:05.589Z,10.20
2019-05-07T08:01:47.407Z,8.13
2019-05-07T08:04:15.892Z,6.77
2019-05-07T08:06:45.649Z,12.03
2019-05-07T08:09:14.092Z,10.13
2019-05-07T08:11:42.720Z,8.43
2019-05-07T08:14:12.631Z,8.03
2019-05-07T08:16:42.918Z,7.13
2019-05-07T08:19:19.360Z,8.63
2019-05-07T08:21:42.112Z,6.27
2019-05-07T08:24:12.224Z,7.27
2019-05-07T08:26:42.863Z,7.10
2019-05-07T08:29:11.950Z,7.73
2019-05-07T08:31:45.142Z,5.97
2019-05-07T08:34:17.901Z,4.93
2019-05-07T08:36:46.462Z,5.50
2019-05-07T08:39:14.921Z,9.17
2019-05-07T08:41:43.344Z,8.00
2019-05-07T08:44:15.612Z,5.50
2019-05-07T08:46:52.085Z,7.03
2019-05-07T08:49:33.406Z,7.80
2019-05-07T08:52:03.337Z,12.03
2019-05-07T08:54:32.260Z,11.47
2019-05-07T08:57:02.016Z,6.50
2019-05-07T08:59:32.083Z,8.47
2019-05-07T09:02:03.057Z,7.27
2019-05-07T09:04:32.719Z,8.47
2019-05-07T09:07:02.739Z,6.50
2019-05-07T09:09:32.349Z,6.17
2019-05-07T09:12:03.084Z,4.33
2019-05-07T09:14:32.066Z,4.57
2019-05-07T09:17:02.473Z,5.37
2019-05-07T09:19:32.371Z,5.57
2019-05-07T09:22:02.270Z,5.23
2019-05-07T09:24:33.273Z,8.53
2019-05-07T09:27:02.934Z,9.07
2019-05-07T09:29:33.012Z,5.50
2019-05-07T09:32:22.735Z,5.17
2019-05-07T09:34:52.903Z,8.53
2019-05-07T09:37:25.533Z,6.40
2019-05-07T09:39:53.935Z,7.10
2019-05-07T09:42:22.683Z,5.30
2019-05-07T09:44:52.882Z,10.73
2019-05-07T09:47:21.918Z,5.77
2019-05-07T09:50:01.959Z,3.93
2019-05-07T09:52:22.650Z,7.20
2019-05-07T09:54:52.265Z,7.60
2019-05-07T09:57:30.077Z,5.20
2019-05-07T09:59:53.045Z,5.47
2019-05-07T10:02:22.695Z,7.33
2019-05-07T10:04:52.724Z,7.60
2019-05-07T10:07:22.334Z,6.97
2019-05-07T10:09:52.348Z,5.20
2019-05-07T10:12:25.632Z,4.63
2019-05-07T10:14:54.137Z,7.13
2019-05-07T10:17:24.281Z,7.17
2019-05-07T10:19:52.775Z,6.77
2019-05-07T10:22:22.762Z,5.43
2019-05-07T10:24:52.215Z,7.70
2019-05-07T10:27:21.827Z,8.40
2019-05-07T10:29:52.895Z,5.93
2019-05-07T10:32:21.072Z,4.07
2019-05-07T10:34:49.518Z,6.97
2019-05-07T10:37:18.020Z,5.37
2019-05-07T10:39:46.515Z,7.70
2019-05-07T10:42:14.944Z,3.77
2019-05-07T10:44:47.749Z,5.33
2019-05-07T10:47:33.883Z,3.87
2019-05-07T10:50:31.709Z,6.47
2019-05-07T10:52:49.578Z,4.40
2019-05-07T10:55:18.061Z,7.67
2019-05-07T10:57:46.480Z,4.57
2019-05-07T11:00:18.188Z,3.33
2019-05-07T11:02:46.723Z,4.77
2019-05-07T11:05:15.835Z,7.37
2019-05-07T11:07:44.330Z,2.73
2019-05-07T11:10:13.785Z,7.13
2019-05-07T11:12:42.635Z,8.93
2019-05-07T11:15:12.620Z,3.60
2019-05-07T11:17:48.751Z,4.43
2019-05-07T11:20:18.732Z,4.87
2019-05-07T11:22:47.215Z,4.33
2019-05-07T11:25:15.690Z,6.57
2019-05-07T11:27:44.187Z,7.33
2019-05-07T11:30:14.346Z,7.70
2019-05-07T11:32:43.038Z,5.20
2019-05-07T11:35:14.638Z,4.90
2019-05-07T11:37:44.088Z,4.07
2019-05-07T11:40:13.104Z,4.20
2019-05-07T11:42:58.215Z,5.33
2019-05-07T11:45:37.235Z,4.70
2019-05-07T11:48:06.299Z,6.00
2019-05-07T11:51:01.500Z,2.27
2019-05-07T11:53:25.995Z,8.77
2019-05-07T11:55:54.421Z,6.23
2019-05-07T11:58:22.927Z,4.03
2019-05-07T12:03:42.758Z,4.33
2019-05-07T12:06:12.429Z,3.67
2019-05-07T12:08:48.046Z,5.17
2019-05-07T12:11:11.929Z,4.03
2019-05-07T12:13:42.564Z,4.13
2019-05-07T12:16:13.951Z,3.23
2019-05-07T12:18:42.946Z,2.77
2019-05-07T12:21:18.345Z,5.57
2019-05-07T12:23:42.179Z,4.53
2019-05-07T12:26:12.584Z,3.73
2019-05-07T12:28:41.860Z,5.33
2019-05-07T12:31:27.175Z,7.00
2019-05-07T12:34:15.392Z,4.73
2019-05-07T12:36:43.815Z,5.40
2019-05-07T12:39:12.876Z,8.10
2019-05-07T12:41:41.883Z,5.07
2019-05-07T12:44:12.753Z,4.67
2019-05-07T12:46:42.297Z,6.73
2019-05-07T12:49:12.019Z,4.60
2019-05-07T12:51:42.769Z,4.53
2019-05-07T12:54:15.795Z,2.80
2019-05-07T12:56:44.213Z,7.07
2019-05-07T12:59:12.948Z,6.80
2019-05-07T13:01:48.779Z,5.53
2019-05-07T13:04:22.164Z,4.30
2019-05-07T13:06:52.460Z,7.70
2019-05-07T13:09:21.959Z,2.50
2019-05-07T13:11:52.529Z,4.07
2019-05-07T13:14:21.834Z,5.33
2019-05-07T13:16:52.271Z,6.83
2019-05-07T13:19:22.620Z,5.77
2019-05-07T13:21:51.293Z,7.27
2019-05-07T13:24:19.762Z,4.13
2019-05-07T13:26:48.207Z,4.43
2019-05-07T13:29:16.618Z,4.93
2019-05-07T13:31:45.604Z,4.90
2019-05-07T13:34:14.895Z,3.30
2019-05-07T13:36:45.412Z,4.23
2019-05-07T13:39:15.642Z,3.67
2019-05-07T13:41:45.754Z,5.80
2019-05-07T13:44:22.889Z,3.47
2019-05-07T13:46:53.362Z,3.37
2019-05-07T13:49:22.039Z,4.47
2019-05-07T13:52:02.857Z,6.70
2019-05-07T13:54:21.859Z,4.43
2019-05-07T13:56:52.393Z,6.90
2019-05-07T13:59:22.302Z,6.33
2019-05-07T14:01:52.456Z,4.67
2019-05-07T14:04:22.281Z,3.53
2019-05-07T14:06:52.956Z,2.33
2019-05-07T14:09:24.390Z,8.50
2019-05-07T14:11:53.388Z,2.63
2019-05-07T14:14:22.559Z,5.13
2019-05-07T14:16:53.071Z,4.63
2019-05-07T14:19:22.384Z,3.83
2019-05-07T14:21:52.556Z,3.03
2019-05-07T14:24:22.398Z,4.50
2019-05-07T14:26:52.752Z,5.17
2019-05-07T14:29:24.334Z,4.57
2019-05-07T14:31:53.162Z,3.90
2019-05-07T14:34:31.960Z,5.93
2019-05-07T14:37:06.364Z,3.27
2019-05-07T14:39:34.847Z,2.40
2019-05-07T14:42:04.982Z,4.37
2019-05-07T14:44:49.271Z,6.27
2019-05-07T14:47:19.243Z,3.47
2019-05-07T14:49:48.619Z,4.70
2019-05-07T14:52:28.941Z,3.07
2019-05-07T14:54:47.753Z,2.93
2019-05-07T14:57:16.251Z,4.53
2019-05-07T14:59:44.656Z,2.70
2019-05-07T15:02:13.425Z,2.50
2019-05-07T15:04:42.071Z,2.20
2019-05-07T15:07:12.021Z,3.17
2019-05-07T15:09:42.459Z,5.93
2019-05-07T15:12:12.440Z,3.83
2019-05-07T15:14:42.157Z,3.17
2019-05-07T15:17:12.897Z,3.47
2019-05-07T15:19:42.736Z,3.97
2019-05-07T15:22:25.401Z,5.60
2019-05-07T15:24:53.803Z,4.57
2019-05-07T15:27:23.681Z,5.37
2019-05-07T15:29:52.649Z,8.20
2019-05-07T15:32:21.813Z,3.97
2019-05-07T15:34:52.546Z,3.97
2019-05-07T15:37:20.853Z,3.90
2019-05-07T15:39:49.318Z,2.93
2019-05-07T15:42:17.783Z,5.70
2019-05-07T15:44:46.265Z,4.23
2019-05-07T15:47:19.087Z,5.03
2019-05-07T15:49:47.537Z,5.30
2019-05-07T15:52:23.103Z,3.83
2019-05-07T15:54:52.219Z,4.60
2019-05-07T15:57:22.425Z,3.13
2019-05-07T15:59:52.539Z,2.67
2019-05-07T16:02:22.661Z,5.40
2019-05-07T16:04:51.113Z,3.17
2019-05-07T16:07:19.547Z,5.10
2019-05-07T16:09:48.029Z,3.50
2019-05-07T16:12:18.101Z,3.60
2019-05-07T16:14:46.511Z,2.83
2019-05-07T16:17:16.566Z,3.10
2019-05-07T16:19:45.014Z,5.87
2019-05-07T16:22:15.083Z,3.40
2019-05-07T16:24:43.497Z,5.77
2019-05-07T16:27:12.255Z,3.57
2019-05-07T16:29:42.606Z,4.20
2019-05-07T16:32:11.028Z,4.70
2019-05-07T16:34:39.531Z,5.10
2019-05-07T16:37:08.435Z,8.27
2019-05-07T16:39:37.259Z,6.43
2019-05-07T16:42:05.762Z,5.07
2019-05-07T16:44:34.263Z,4.43
2019-05-07T16:47:02.929Z,4.27
2019-05-07T16:49:31.953Z,3.57
2019-05-07T16:52:01.852Z,6.23
2019-05-07T16:54:30.653Z,5.53
2019-05-07T16:57:16.195Z,3.90
2019-05-07T16:59:44.824Z,4.37
2019-05-07T17:02:14.883Z,5.60
2019-05-07T17:05:03.137Z,3.40
2019-05-07T17:07:32.120Z,4.80
2019-05-07T17:10:02.653Z,5.03
2019-05-07T17:12:32.379Z,6.00
2019-05-07T17:15:02.971Z,4.17
2019-05-07T17:17:32.076Z,4.70
2019-05-07T17:20:02.700Z,3.20
2019-05-07T17:22:32.295Z,5.00
2019-05-07T17:25:03.166Z,5.67
2019-05-07T17:27:32.236Z,5.67
2019-05-07T17:30:02.939Z,6.07
2019-05-07T17:32:32.093Z,4.60
2019-05-07T17:35:02.607Z,3.80
2019-05-07T17:37:30.835Z,4.93
2019-05-07T17:39:59.260Z,4.10
2019-05-07T17:42:27.673Z,3.87
2019-05-07T17:44:56.202Z,3.43
2019-05-07T17:47:24.876Z,3.10
2019-05-07T17:49:53.376Z,4.37
2019-05-07T17:52:22.749Z,4.30
2019-05-07T17:54:52.759Z,4.83
2019-05-07T17:57:22.757Z,4.00
2019-05-07T17:59:52.573Z,6.40
2019-05-07T18:02:25.879Z,5.90
2019-05-07T18:04:54.756Z,6.60
2019-05-07T18:07:24.116Z,5.57
2019-05-07T18:09:52.559Z,5.10
2019-05-07T18:12:22.469Z,3.63
2019-05-07T18:14:52.787Z,6.27
2019-05-07T18:17:23.181Z,4.97
2019-05-07T18:19:51.594Z,4.90
2019-05-07T18:22:21.969Z,3.50
2019-05-07T18:24:50.230Z,4.00
2019-05-07T18:27:22.327Z,4.90
2019-05-07T18:29:52.253Z,5.37
2019-05-07T18:32:21.907Z,5.10
2019-05-07T18:34:51.906Z,3.83
2019-05-07T18:37:22.731Z,8.13
2019-05-07T18:39:52.189Z,6.93
2019-05-07T18:42:22.191Z,5.67
2019-05-07T18:44:52.387Z,5.83
2019-05-07T18:47:22.308Z,7.77
2019-05-07T18:49:51.922Z,6.27
2019-05-07T18:52:22.822Z,6.83
2019-05-07T18:54:52.047Z,4.43
2019-05-07T18:57:22.189Z,4.77
2019-05-07T18:59:53.066Z,8.77
2019-05-07T19:02:22.584Z,4.13
2019-05-07T19:04:51.892Z,10.70
2019-05-07T19:07:22.822Z,5.53
2019-05-07T19:09:51.688Z,7.23
2019-05-07T19:12:22.409Z,6.73
2019-05-07T19:14:51.734Z,3.20
2019-05-07T19:17:21.875Z,4.50
2019-05-07T19:19:52.569Z,6.27
2019-05-07T19:22:22.237Z,6.10
2019-05-07T19:24:52.664Z,4.00
2019-05-07T19:27:22.010Z,4.73
2019-05-07T19:29:50.581Z,6.67
2019-05-07T19:32:18.977Z,3.50
2019-05-07T19:34:47.422Z,7.50
2019-05-07T19:37:15.829Z,4.60
2019-05-07T19:39:44.316Z,5.40
2019-05-07T19:42:12.798Z,4.93
2019-05-07T19:44:42.332Z,7.60
2019-05-07T19:47:12.664Z,3.50
2019-05-07T19:49:41.886Z,6.60
2019-05-07T19:52:12.413Z,9.43
2019-05-07T19:54:42.991Z,4.23
2019-05-07T19:57:12.547Z,5.27
2019-05-07T19:59:42.858Z,5.67
2019-05-07T20:02:12.743Z,6.50
2019-05-07T20:04:42.750Z,4.73
2019-05-07T20:07:12.231Z,5.03
2019-05-07T20:09:42.486Z,4.97
2019-05-07T20:12:11.462Z,6.40
2019-05-07T20:14:42.085Z,6.47
2019-05-07T20:17:12.157Z,6.87
2019-05-07T20:19:44.762Z,7.57
2019-05-07T20:22:13.332Z,7.40
2019-05-07T20:24:42.048Z,6.70
2019-05-07T20:27:12.454Z,6.27
2019-05-07T20:29:42.801Z,4.77
2019-05-07T20:32:11.425Z,8.37
2019-05-07T20:34:39.851Z,4.97
2019-05-07T20:37:08.470Z,6.80
2019-05-07T20:39:37.749Z,6.17
2019-05-07T20:42:06.801Z,6.03
2019-05-07T20:44:35.366Z,7.40
2019-05-07T20:47:03.973Z,7.60
2019-05-07T20:49:32.957Z,10.03
2019-05-07T20:52:01.443Z,8.40
2019-05-07T20:54:32.510Z,7.77
2019-05-07T20:57:08.622Z,6.07
2019-05-07T20:59:37.179Z,7.57
2019-05-07T21:02:05.727Z,8.33
2019-05-07T21:04:35.443Z,9.03
2019-05-07T21:07:04.249Z,9.67
2019-05-07T21:09:33.068Z,5.70
2019-05-07T21:12:01.653Z,8.40
2019-05-07T21:14:32.457Z,6.60
2019-05-07T21:17:01.549Z,6.63
2019-05-07T21:19:30.250Z,7.70
2019-05-07T21:21:58.868Z,9.27
2019-05-07T21:24:27.354Z,6.47
2019-05-07T21:26:55.863Z,7.03
2019-05-07T21:29:24.337Z,7.77
2019-05-07T21:31:52.842Z,9.60
2019-05-07T21:34:23.061Z,10.17
2019-05-07T21:36:53.999Z,8.63
2019-05-07T21:39:22.683Z,8.83
2019-05-07T21:41:56.709Z,9.30
2019-05-07T21:44:25.463Z,7.70
2019-05-07T21:46:54.232Z,11.07
2019-05-07T21:49:22.992Z,7.97
2019-05-07T21:51:52.271Z,8.10
2019-05-07T21:54:23.723Z,10.63
2019-05-07T21:56:57.749Z,9.50
2019-05-07T21:59:33.520Z,7.63
2019-05-07T22:02:02.764Z,9.30
2019-05-07T22:04:31.159Z,8.67
2019-05-07T22:07:02.770Z,7.53
2019-05-07T22:09:33.024Z,12.33
2019-05-07T22:12:03.673Z,9.13
2019-05-07T22:14:32.993Z,7.07
2019-05-07T22:17:02.105Z,10.80
2019-05-07T22:19:33.560Z,7.77
2019-05-07T22:22:02.896Z,8.87
2019-05-07T22:24:32.901Z,6.57
2019-05-07T22:27:01.724Z,6.97
2019-05-07T22:29:31.566Z,8.80
2019-05-07T22:32:04.585Z,7.97
2019-05-07T22:34:34.648Z,7.20
2019-05-07T22:37:09.525Z,7.83
2019-05-07T22:39:37.942Z,7.63
2019-05-07T22:42:06.365Z,7.83
2019-05-07T22:44:34.783Z,11.07
2019-05-07T22:47:07.547Z,10.97
2019-05-07T22:49:35.990Z,10.00
2019-05-07T22:52:04.392Z,7.23
2019-05-07T22:54:32.816Z,10.00
2019-05-07T22:57:19.017Z,10.87
2019-05-07T22:59:47.419Z,9.73
2019-05-07T23:02:15.894Z,9.27
2019-05-07T23:04:44.312Z,8.70
2019-05-07T23:07:12.880Z,10.47
2019-05-07T23:09:41.993Z,10.93
2019-05-07T23:12:12.410Z,9.67
2019-05-07T23:14:41.139Z,11.30
2019-05-07T23:17:09.575Z,9.53
2019-05-07T23:19:37.984Z,6.63
2019-05-07T23:22:06.450Z,9.03
2019-05-07T23:24:34.884Z,9.10
2019-05-07T23:27:03.282Z,7.43
2019-05-07T23:29:33.019Z,9.27
2019-05-07T23:32:02.082Z,11.00
2019-05-07T23:34:32.598Z,7.87
2019-05-07T23:37:02.508Z,8.80
2019-05-07T23:39:35.659Z,8.63
2019-05-07T23:42:05.718Z,10.47
2019-05-07T23:44:34.136Z,9.43
2019-05-07T23:47:02.861Z,14.87
2019-05-07T23:49:32.231Z,14.83
2019-05-07T23:52:02.391Z,8.30
2019-05-07T23:54:31.919Z,10.53
2019-05-07T23:57:07.140Z,12.70
2019-05-07T23:59:32.689Z,9.17
